Nearby METAR Reports

 

KSJC - San Jose, California, USA
Distance from station: NE 9mi, 14km
Updated: Thu, 27-Aug-2015 6:53pm PDT
Partly cloudy
Partly cloudy
 Wind from NW
Wind: NW 13 mph , 20 km/h
Temperature: 79°F , 26°C
Dew Point: 48°F , 9°C
Humidity: 34%
Barometer: 29.96 inHg , 1014.6 hPa
Clouds: Partly cloudy
Visibility: 10 miles , 16 km
Cloud details: Few Clouds 7000 ft
Partly cloudy 14000 ft
Partly cloudy 25000 ft
2015/08/28 01:53 KSJC 280153Z 31011KT 10SM FEW070 SCT140 SCT250 26/09 A2996 RMK AO2 SLP144 T02560094
KNUQ - Moffett Nas/Mtn, California, USA
Distance from station: N 9mi, 14km
Updated: Thu, 27-Aug-2015 6:56pm PDT
Clear
Clear
 Wind from N
Wind: N 13 mph , 20 km/h
Temperature: 79°F , 26°C
Dew Point: 54°F , 12°C
Humidity: 42%
Barometer: 29.96 inHg , 1014.6 hPa
Clouds: Clear
Visibility: 10 miles , 16 km
2015/08/28 01:56 KNUQ 280156Z AUTO 36011KT 10SM CLR 26/12 A2996 RMK AO2 SLP148 T02560122 TSNO
 
KPAO - Palo Alto, California, USA
Distance from station: NNW 14mi, 23km
Updated: Thu, 27-Aug-2015 6:47pm PDT
Clear
Clear
 Wind from NNW
Wind: NNW 14 mph , 22 km/h
Temperature: 82°F , 28°C
Dew Point: 48°F , 9°C
Humidity: 30%
Barometer: 29.95 inHg , 1014.2 hPa
Clouds: Clear
Visibility: 20 miles , 32 km
2015/08/28 01:47 KPAO 280147Z 33012KT 20SM SKC 28/09 A2995
KRHV - San Jose/Reid, California, USA
Distance from station: ENE 12mi, 19km
Updated: Thu, 27-Aug-2015 5:50pm PDT
NOT Current
Clear
Clear
 Wind from NW
Wind: NW 17 mph , 28 km/h
Temperature: 88°F , 31°C
Dew Point: 46°F , 8°C
Humidity: 24%
Barometer: 29.96 inHg , 1014.6 hPa
Clouds: Clear
Visibility: 10 miles , 16 km
2015/08/28 00:50 KRHV 280050Z 32015KT 10SM SKC 31/08 A2996
 
KOAK - Oakland, California, USA
Distance from station: NNW 31mi, 50km
Updated: Thu, 27-Aug-2015 6:53pm PDT
Partly cloudy
Partly cloudy
 Wind from WNW
Wind: WNW 10 mph , 17 km/h
Temperature: 75°F , 24°C
Dew Point: 55°F , 13°C
Humidity: 50%
Barometer: 29.95 inHg , 1014.2 hPa
Clouds: Partly cloudy
Visibility: 10 miles , 16 km
Cloud details: Partly cloudy 20000 ft
2015/08/28 01:53 KOAK 280153Z 30009KT 10SM SCT200 24/13 A2995 RMK AO2 SLP143 T02440128
KSQL - San Carlos Airpo, California, USA
Distance from station: NW 21mi, 34km
Updated: Thu, 27-Aug-2015 6:47pm PDT
Partly cloudy
Partly cloudy
 Wind from W
Wind: W 14 mph , 22 km/h, Gust: 20 mph , 31 km/h
Temperature: 82°F , 28°C
Dew Point: 45°F , 7°C
Humidity: 26%
Barometer: 29.97 inHg , 1014.9 hPa
Clouds: Partly cloudy
Visibility: 10 miles , 16 km
Cloud details: Partly cloudy 20000 ft
2015/08/28 01:47 KSQL 280147Z 28012G17KT 10SM SCT200 28/07 A2997
 
KSFO - San Francisco, California, USA
Distance from station: NW 30mi, 49km
Updated: Thu, 27-Aug-2015 6:56pm PDT
Mostly cloudy
Mostly cloudy
 Wind from WNW
Wind: WNW 18 mph , 30 km/h
Temperature: 73°F , 23°C
Dew Point: 46°F , 8°C
Humidity: 38%
Barometer: 29.96 inHg , 1014.6 hPa
Clouds: Mostly cloudy
Visibility: 10 miles , 16 km
Cloud details: Mostly cloudy 18000 ft
2015/08/28 01:56 KSFO 280156Z 29016KT 10SM BKN180 23/08 A2996 RMK AO2 PK WND 27026/0058 SLP145 T02280083 $
KE16 - San Martin, California, USA
Distance from station: ESE 27mi, 43km
Updated: Thu, 27-Aug-2015 6:50pm PDT
Clear
Clear
 Wind from NW
Wind: NW 15 mph , 24 km/h, Gust: 23 mph , 37 km/h
Temperature: 86°F , 30°C
Dew Point: 41°F , 5°C
Humidity: 20%
Barometer: 29.95 inHg , 1014.2 hPa
Clouds: Clear
Visibility: 10 miles , 16 km
2015/08/28 01:50 KE16 280150Z AUTO 31013G20KT 10SM CLR 30/05 A2995 RMK AO2 SOUTH WIND SOCK OUT OF SERVICE
 
KWVI - Watsonville, California, USA
Distance from station: SSE 27mi, 44km
Updated: Thu, 27-Aug-2015 6:53pm PDT
Clear
Clear
 Wind from SSE
Wind: SSE 8 mph , 13 km/h
Temperature: 77°F , 25°C
Dew Point: 54°F , 12°C
Humidity: 44%
Barometer: 29.94 inHg , 1013.9 hPa
Clouds: Clear
Visibility: 10 miles , 16 km
2015/08/28 01:53 KWVI 280153Z AUTO 16007KT 10SM CLR 25/12 A2994 RMK AO2 SLP137 T02500122
KHAF - Half Moon Bay, California, USA
Distance from station: WNW 31mi, 50km
Updated: Thu, 27-Aug-2015 6:55pm PDT
Clear
Clear
 Wind from NNW
Wind: NNW 16 mph , 26 km/h
Temperature: 70°F , 21°C
Dew Point: 48°F , 9°C
Humidity: 46%
Barometer: 29.98 inHg , 1015.2 hPa
Clouds: Clear
Visibility: 10 miles , 16 km
2015/08/28 01:55 KHAF 280155Z AUTO 34014KT 10SM CLR 21/09 A2998 RMK AO2
 
KHWD - Hayward, California, USA
Distance from station: N 28mi, 44km
Updated: Thu, 27-Aug-2015 6:54pm PDT
Clear
Clear
 Wind from WNW
Wind: WNW 7 mph , 11 km/h
Temperature: 75°F , 24°C
Dew Point: 55°F , 13°C
Humidity: 50%
Barometer: 29.96 inHg , 1014.6 hPa
Clouds: Clear
Visibility: 10 miles , 16 km
2015/08/28 01:54 KHWD 280154Z 29006KT 10SM CLR 24/13 A2996 RMK AO2 SLP153 T02390133
KLVK - Livermore, California, USA
Distance from station: NNE 31mi, 51km
Updated: Thu, 27-Aug-2015 6:53pm PDT
Clear
Clear
 Wind from W
Wind: W 12 mph , 19 km/h
Temperature: 90°F , 32°C
Dew Point: 48°F , 9°C
Humidity: 24%
Barometer: 29.93 inHg , 1013.5 hPa
Clouds: Clear
Visibility: 10 miles , 16 km
2015/08/28 01:53 KLVK 280153Z 27010KT 10SM CLR 32/09 A2993 RMK AO2 SLP131 T03220089